N420VF KPDX-KSLC
Flight info
| Callsign | N420VF |
|---|---|
| Flight time | 1h 34m |
| Altitude | 37000 |
| Route | WHAMY5 IMB J15 BOI BYI SKEES6 |
| Aircraft | HDJT/L-SDFGIRWY/LB1 |
Departure
| Time | 2026-05-06 00:30 |
|---|---|
| Airport | Portland International Airport (KPDX) |
Arrival
| Time | 2026-05-06 02:05 |
|---|---|
| Airport | Salt Lake City International Airport (KSLC) |
| Time | Latitude | Longitude | Altitude | Speed | Heading |
|---|---|---|---|---|---|
| 2026-05-06 00:01 | 45.58529 | -122.57880 | 35 ft | 0 kts | 120° |
| 2026-05-06 00:24 | 45.58525 | -122.57868 | 26 ft | 4 kts | 103° |
| 2026-05-06 00:24 | 45.58546 | -122.57824 | 26 ft | 7 kts | 34° |
| 2026-05-06 00:25 | 45.58562 | -122.57769 | 26 ft | 8 kts | 120° |
| 2026-05-06 00:25 | 45.58556 | -122.57703 | 28 ft | 7 kts | 51° |
| 2026-05-06 00:25 | 45.58596 | -122.57665 | 26 ft | 7 kts | 45° |
| 2026-05-06 00:25 | 45.58595 | -122.57604 | 29 ft | 7 kts | 123° |
| 2026-05-06 00:26 | 45.58560 | -122.57520 | 26 ft | 12 kts | 118° |
| 2026-05-06 00:26 | 45.58512 | -122.57397 | 26 ft | 15 kts | 118° |
| 2026-05-06 00:26 | 45.58460 | -122.57265 | 26 ft | 15 kts | 120° |
| 2026-05-06 00:26 | 45.58409 | -122.57134 | 26 ft | 15 kts | 118° |
| 2026-05-06 00:27 | 45.58358 | -122.57005 | 28 ft | 14 kts | 118° |
| 2026-05-06 00:27 | 45.58346 | -122.56917 | 26 ft | 4 kts | 62° |
| 2026-05-06 00:27 | 45.58347 | -122.56915 | 26 ft | 0 kts | 57° |
| 2026-05-06 00:29 | 45.58348 | -122.56914 | 26 ft | 1 kts | 57° |
| 2026-05-06 00:29 | 45.58393 | -122.56874 | 26 ft | 13 kts | 16° |
| 2026-05-06 00:29 | 45.58455 | -122.56928 | 24 ft | 11 kts | 298° |
| 2026-05-06 00:29 | 45.58542 | -122.57151 | 24 ft | 61 kts | 299° |
| 2026-05-06 00:30 | 45.58885 | -122.58033 | 79 ft | 129 kts | 298° |
| 2026-05-06 00:30 | 45.59363 | -122.59297 | 385 ft | 160 kts | 297° |
| 2026-05-06 00:30 | 45.59868 | -122.60678 | 1308 ft | 152 kts | 298° |
| 2026-05-06 00:30 | 45.60351 | -122.62025 | 2124 ft | 154 kts | 297° |
| 2026-05-06 00:31 | 45.60838 | -122.63403 | 2921 ft | 155 kts | 298° |
| 2026-05-06 00:31 | 45.61152 | -122.64314 | 3478 ft | 154 kts | 295° |
| 2026-05-06 00:31 | 45.61550 | -122.66326 | 4460 ft | 160 kts | 287° |
| 2026-05-06 00:31 | 45.61778 | -122.67333 | 4938 ft | 163 kts | 297° |
| 2026-05-06 00:32 | 45.62364 | -122.68733 | 5632 ft | 168 kts | 303° |
| 2026-05-06 00:32 | 45.62961 | -122.70204 | 6340 ft | 171 kts | 300° |
| 2026-05-06 00:32 | 45.63535 | -122.71638 | 6483 ft | 170 kts | 300° |
| 2026-05-06 00:32 | 45.64160 | -122.73179 | 6873 ft | 180 kts | 301° |
| 2026-05-06 00:33 | 45.64792 | -122.74736 | 7005 ft | 182 kts | 300° |
| 2026-05-06 00:33 | 45.65462 | -122.76391 | 7012 ft | 202 kts | 300° |
| 2026-05-06 00:33 | 45.66170 | -122.78140 | 7017 ft | 202 kts | 301° |
| 2026-05-06 00:33 | 45.66848 | -122.79891 | 7014 ft | 201 kts | 293° |
| 2026-05-06 00:34 | 45.67112 | -122.81868 | 7249 ft | 205 kts | 270° |
| 2026-05-06 00:34 | 45.66876 | -122.83850 | 8106 ft | 203 kts | 253° |
| 2026-05-06 00:34 | 45.66453 | -122.85797 | 8857 ft | 207 kts | 254° |
| 2026-05-06 00:34 | 45.66040 | -122.87777 | 9659 ft | 209 kts | 254° |
| 2026-05-06 00:35 | 45.65467 | -122.89700 | 10396 ft | 214 kts | 236° |
| 2026-05-06 00:35 | 45.64425 | -122.91236 | 11112 ft | 218 kts | 216° |
| 2026-05-06 00:35 | 45.63042 | -122.92165 | 11816 ft | 224 kts | 194° |
| 2026-05-06 00:35 | 45.61477 | -122.92310 | 12519 ft | 229 kts | 171° |
| 2026-05-06 00:36 | 45.59926 | -122.91734 | 13224 ft | 233 kts | 162° |
| 2026-05-06 00:36 | 45.58296 | -122.91042 | 13572 ft | 258 kts | 162° |
| 2026-05-06 00:36 | 45.56486 | -122.90254 | 13745 ft | 286 kts | 156° |
| 2026-05-06 00:36 | 45.54736 | -122.88720 | 13933 ft | 306 kts | 137° |
| 2026-05-06 00:37 | 45.53343 | -122.86411 | 14482 ft | 307 kts | 118° |
| 2026-05-06 00:37 | 45.52414 | -122.83688 | 15131 ft | 307 kts | 110° |
| 2026-05-06 00:37 | 45.51555 | -122.80889 | 15804 ft | 309 kts | 110° |
| 2026-05-06 00:37 | 45.50683 | -122.78075 | 16476 ft | 311 kts | 110° |
| 2026-05-06 00:38 | 45.49803 | -122.75244 | 17137 ft | 314 kts | 110° |
| 2026-05-06 00:38 | 45.48918 | -122.72392 | 17815 ft | 316 kts | 110° |
| 2026-05-06 00:38 | 45.48027 | -122.69522 | 18455 ft | 318 kts | 110° |
| 2026-05-06 00:38 | 45.47124 | -122.66622 | 19028 ft | 321 kts | 110° |
| 2026-05-06 00:39 | 45.46214 | -122.63699 | 19576 ft | 325 kts | 110° |
| 2026-05-06 00:39 | 45.45292 | -122.60742 | 20139 ft | 328 kts | 110° |
| 2026-05-06 00:39 | 45.44361 | -122.57759 | 20693 ft | 332 kts | 110° |
| 2026-05-06 00:39 | 45.43418 | -122.54745 | 21261 ft | 335 kts | 110° |
| 2026-05-06 00:40 | 45.42465 | -122.51701 | 21830 ft | 338 kts | 109° |
| 2026-05-06 00:40 | 45.41500 | -122.48622 | 22411 ft | 342 kts | 110° |
| 2026-05-06 00:40 | 45.40527 | -122.45518 | 22977 ft | 346 kts | 109° |
| 2026-05-06 00:40 | 45.39540 | -122.42376 | 23555 ft | 349 kts | 109° |
| 2026-05-06 00:41 | 45.38543 | -122.39206 | 24045 ft | 353 kts | 110° |
| 2026-05-06 00:41 | 45.37549 | -122.36052 | 24528 ft | 356 kts | 109° |
| 2026-05-06 00:41 | 45.36532 | -122.32826 | 25004 ft | 359 kts | 109° |
| 2026-05-06 00:41 | 45.35518 | -122.29572 | 25495 ft | 361 kts | 109° |
| 2026-05-06 00:42 | 45.34505 | -122.26278 | 25938 ft | 365 kts | 109° |
| 2026-05-06 00:42 | 45.33456 | -122.22981 | 26377 ft | 368 kts | 110° |
| 2026-05-06 00:42 | 45.32385 | -122.19664 | 26815 ft | 370 kts | 110° |
| 2026-05-06 00:42 | 45.31321 | -122.16322 | 27245 ft | 373 kts | 110° |
| 2026-05-06 00:43 | 45.30253 | -122.12946 | 27645 ft | 376 kts | 110° |
| 2026-05-06 00:43 | 45.29172 | -122.09556 | 28053 ft | 378 kts | 110° |
| 2026-05-06 00:43 | 45.28078 | -122.06144 | 28432 ft | 381 kts | 110° |
| 2026-05-06 00:43 | 45.26980 | -122.02715 | 28812 ft | 383 kts | 110° |
| 2026-05-06 00:44 | 45.25875 | -121.99265 | 29165 ft | 385 kts | 110° |
| 2026-05-06 00:44 | 45.24869 | -121.95745 | 29506 ft | 385 kts | 105° |
| 2026-05-06 00:44 | 45.23968 | -121.92156 | 29813 ft | 387 kts | 105° |
| 2026-05-06 00:44 | 45.23056 | -121.88545 | 30111 ft | 390 kts | 105° |
| 2026-05-06 00:45 | 45.22124 | -121.84926 | 30336 ft | 392 kts | 106° |
| 2026-05-06 00:45 | 45.21185 | -121.81287 | 30592 ft | 394 kts | 105° |
| 2026-05-06 00:45 | 45.20248 | -121.77630 | 30835 ft | 395 kts | 105° |
| 2026-05-06 00:45 | 45.19310 | -121.73960 | 31026 ft | 397 kts | 105° |
| 2026-05-06 00:46 | 45.18360 | -121.70277 | 31221 ft | 399 kts | 105° |
| 2026-05-06 00:46 | 45.17404 | -121.66579 | 31416 ft | 400 kts | 105° |
| 2026-05-06 00:46 | 45.16447 | -121.62871 | 31617 ft | 401 kts | 105° |
| 2026-05-06 00:46 | 45.15487 | -121.59155 | 31850 ft | 402 kts | 105° |
| 2026-05-06 00:47 | 45.14521 | -121.55428 | 32012 ft | 404 kts | 105° |
| 2026-05-06 00:47 | 45.13551 | -121.51692 | 32191 ft | 405 kts | 105° |
| 2026-05-06 00:47 | 45.12578 | -121.47946 | 32349 ft | 406 kts | 105° |
| 2026-05-06 00:47 | 45.11599 | -121.44189 | 32488 ft | 408 kts | 105° |
| 2026-05-06 00:48 | 45.10615 | -121.40416 | 32665 ft | 408 kts | 105° |
| 2026-05-06 00:48 | 45.09630 | -121.36642 | 32798 ft | 409 kts | 105° |
| 2026-05-06 00:48 | 45.08641 | -121.32861 | 32948 ft | 410 kts | 105° |
| 2026-05-06 00:48 | 45.07647 | -121.29070 | 33090 ft | 411 kts | 105° |
| 2026-05-06 00:49 | 45.06651 | -121.25273 | 33221 ft | 412 kts | 105° |
| 2026-05-06 00:49 | 45.05664 | -121.21518 | 33342 ft | 413 kts | 105° |
| 2026-05-06 00:49 | 45.04661 | -121.17712 | 33478 ft | 414 kts | 105° |
| 2026-05-06 00:49 | 45.03657 | -121.13898 | 33586 ft | 414 kts | 105° |
| 2026-05-06 00:50 | 45.02647 | -121.10076 | 33680 ft | 415 kts | 105° |
| 2026-05-06 00:50 | 45.01635 | -121.06254 | 33796 ft | 416 kts | 105° |
| 2026-05-06 00:50 | 45.00618 | -121.02418 | 33895 ft | 417 kts | 105° |
| 2026-05-06 00:50 | 44.99613 | -120.98642 | 34360 ft | 405 kts | 104° |
| 2026-05-06 00:51 | 44.98625 | -120.94924 | 34520 ft | 405 kts | 104° |
| 2026-05-06 00:51 | 44.97637 | -120.91195 | 34631 ft | 406 kts | 104° |
| 2026-05-06 00:51 | 44.96641 | -120.87458 | 34755 ft | 407 kts | 104° |
| 2026-05-06 00:52 | 44.94637 | -120.79973 | 35015 ft | 408 kts | 104° |
| 2026-05-06 00:52 | 44.92628 | -120.72473 | 35199 ft | 410 kts | 104° |
| 2026-05-06 00:53 | 44.90602 | -120.64945 | 35381 ft | 411 kts | 104° |
| 2026-05-06 00:53 | 44.88568 | -120.57408 | 35553 ft | 412 kts | 104° |
| 2026-05-06 00:54 | 44.86522 | -120.49848 | 35699 ft | 413 kts | 104° |
| 2026-05-06 00:54 | 44.84464 | -120.42269 | 35866 ft | 414 kts | 104° |
| 2026-05-06 00:55 | 44.82401 | -120.34694 | 36017 ft | 415 kts | 104° |
| 2026-05-06 00:55 | 44.80321 | -120.27104 | 36125 ft | 416 kts | 104° |
| 2026-05-06 00:56 | 44.78238 | -120.19503 | 36224 ft | 416 kts | 104° |
| 2026-05-06 00:56 | 44.76162 | -120.11941 | 36410 ft | 418 kts | 104° |
| 2026-05-06 00:57 | 44.74056 | -120.04303 | 36528 ft | 419 kts | 104° |
| 2026-05-06 00:57 | 44.71942 | -119.96654 | 36603 ft | 420 kts | 104° |
| 2026-05-06 00:58 | 44.69814 | -119.88996 | 36653 ft | 421 kts | 104° |
| 2026-05-06 00:58 | 44.67683 | -119.81335 | 36702 ft | 421 kts | 104° |
| 2026-05-06 00:59 | 44.65541 | -119.73675 | 36755 ft | 421 kts | 104° |
| 2026-05-06 00:59 | 44.63364 | -119.66020 | 36791 ft | 423 kts | 105° |
| 2026-05-06 01:00 | 44.61113 | -119.58407 | 36822 ft | 421 kts | 105° |
| 2026-05-06 01:00 | 44.58913 | -119.50816 | 36921 ft | 419 kts | 104° |
| 2026-05-06 01:01 | 44.56684 | -119.43246 | 36919 ft | 420 kts | 104° |
| 2026-05-06 01:01 | 44.54455 | -119.35647 | 36918 ft | 422 kts | 105° |
| 2026-05-06 01:02 | 44.52210 | -119.28049 | 36935 ft | 423 kts | 104° |
| 2026-05-06 01:02 | 44.49959 | -119.20436 | 36937 ft | 423 kts | 104° |
| 2026-05-06 01:03 | 44.47697 | -119.12813 | 36935 ft | 424 kts | 105° |
| 2026-05-06 01:03 | 44.45426 | -119.05187 | 36933 ft | 424 kts | 104° |
| 2026-05-06 01:04 | 44.43152 | -118.97566 | 36933 ft | 425 kts | 105° |
| 2026-05-06 01:04 | 44.40867 | -118.89938 | 36936 ft | 425 kts | 105° |
| 2026-05-06 01:05 | 44.38587 | -118.82343 | 36954 ft | 427 kts | 105° |
| 2026-05-06 01:05 | 44.36268 | -118.74650 | 36956 ft | 427 kts | 105° |
| 2026-05-06 01:06 | 44.33978 | -118.67068 | 36957 ft | 427 kts | 105° |
| 2026-05-06 01:06 | 44.31663 | -118.59434 | 36948 ft | 427 kts | 105° |
| 2026-05-06 01:07 | 44.29329 | -118.51754 | 36948 ft | 426 kts | 105° |
| 2026-05-06 01:07 | 44.27013 | -118.44158 | 36931 ft | 426 kts | 105° |
| 2026-05-06 01:08 | 44.24690 | -118.36560 | 36926 ft | 426 kts | 105° |
| 2026-05-06 01:08 | 44.22361 | -118.28965 | 36917 ft | 426 kts | 105° |
| 2026-05-06 01:09 | 44.20024 | -118.21367 | 36920 ft | 427 kts | 105° |
| 2026-05-06 01:09 | 44.17678 | -118.13763 | 36912 ft | 427 kts | 105° |
| 2026-05-06 01:10 | 44.15326 | -118.06161 | 36906 ft | 427 kts | 105° |
| 2026-05-06 01:10 | 44.12985 | -117.98616 | 36896 ft | 428 kts | 105° |
| 2026-05-06 01:11 | 44.10620 | -117.91019 | 36893 ft | 428 kts | 105° |
| 2026-05-06 01:11 | 44.08252 | -117.83434 | 36882 ft | 428 kts | 105° |
| 2026-05-06 01:12 | 44.05881 | -117.75861 | 36884 ft | 426 kts | 105° |
| 2026-05-06 01:12 | 44.03512 | -117.68310 | 36876 ft | 426 kts | 105° |
| 2026-05-06 01:13 | 44.01135 | -117.60762 | 36866 ft | 427 kts | 105° |
| 2026-05-06 01:13 | 43.98750 | -117.53211 | 36864 ft | 426 kts | 105° |
| 2026-05-06 01:14 | 43.95168 | -117.41909 | 36858 ft | 426 kts | 105° |
| 2026-05-06 01:14 | 43.92777 | -117.34390 | 36852 ft | 426 kts | 105° |
| 2026-05-06 01:15 | 43.90379 | -117.26872 | 36844 ft | 426 kts | 106° |
| 2026-05-06 01:15 | 43.87975 | -117.19358 | 36844 ft | 426 kts | 106° |
| 2026-05-06 01:16 | 43.85569 | -117.11857 | 36855 ft | 426 kts | 106° |
| 2026-05-06 01:16 | 43.83157 | -117.04359 | 36856 ft | 426 kts | 106° |
| 2026-05-06 01:17 | 43.80739 | -116.96862 | 36851 ft | 427 kts | 105° |
| 2026-05-06 01:17 | 43.78308 | -116.89352 | 36840 ft | 428 kts | 106° |
| 2026-05-06 01:18 | 43.75871 | -116.81838 | 36850 ft | 428 kts | 106° |
| 2026-05-06 01:18 | 43.73443 | -116.74378 | 36861 ft | 428 kts | 106° |
| 2026-05-06 01:19 | 43.70995 | -116.66876 | 36856 ft | 428 kts | 106° |
| 2026-05-06 01:19 | 43.68543 | -116.59383 | 36856 ft | 428 kts | 106° |
| 2026-05-06 01:20 | 43.66087 | -116.51896 | 36856 ft | 428 kts | 106° |
| 2026-05-06 01:20 | 43.64023 | -116.45625 | 36849 ft | 428 kts | 106° |
| 2026-05-06 01:21 | 43.61556 | -116.38142 | 36838 ft | 429 kts | 106° |
| 2026-05-06 01:21 | 43.59076 | -116.30643 | 36841 ft | 430 kts | 106° |
| 2026-05-06 01:22 | 43.56584 | -116.23134 | 36847 ft | 431 kts | 106° |
| 2026-05-06 01:22 | 43.53887 | -116.15725 | 36848 ft | 436 kts | 111° |
| 2026-05-06 01:23 | 43.50938 | -116.08430 | 36842 ft | 435 kts | 110° |
| 2026-05-06 01:23 | 43.48025 | -116.01189 | 36827 ft | 435 kts | 111° |
| 2026-05-06 01:24 | 43.45080 | -115.93922 | 36814 ft | 435 kts | 111° |
| 2026-05-06 01:24 | 43.42137 | -115.86653 | 36794 ft | 435 kts | 111° |
| 2026-05-06 01:25 | 43.39182 | -115.79392 | 36776 ft | 435 kts | 111° |
| 2026-05-06 01:25 | 43.36225 | -115.72135 | 36785 ft | 435 kts | 111° |
| 2026-05-06 01:26 | 43.33260 | -115.64882 | 36781 ft | 435 kts | 111° |
| 2026-05-06 01:26 | 43.30298 | -115.57647 | 36776 ft | 435 kts | 111° |
| 2026-05-06 01:27 | 43.27328 | -115.50417 | 36765 ft | 434 kts | 111° |
| 2026-05-06 01:27 | 43.24357 | -115.43200 | 36768 ft | 435 kts | 111° |
| 2026-05-06 01:28 | 43.21383 | -115.35962 | 36772 ft | 436 kts | 111° |
| 2026-05-06 01:28 | 43.18389 | -115.28730 | 36760 ft | 436 kts | 111° |
| 2026-05-06 01:29 | 43.15392 | -115.21536 | 36759 ft | 434 kts | 111° |
| 2026-05-06 01:29 | 43.12404 | -115.14337 | 36760 ft | 435 kts | 111° |
| 2026-05-06 01:30 | 43.09396 | -115.07135 | 36778 ft | 437 kts | 111° |
| 2026-05-06 01:30 | 43.06383 | -114.99921 | 36793 ft | 437 kts | 111° |
| 2026-05-06 01:31 | 43.03356 | -114.92700 | 36805 ft | 439 kts | 111° |
| 2026-05-06 01:31 | 43.00315 | -114.85459 | 36818 ft | 440 kts | 111° |
| 2026-05-06 01:32 | 42.97268 | -114.78223 | 36819 ft | 438 kts | 111° |
| 2026-05-06 01:32 | 42.94224 | -114.71010 | 36820 ft | 438 kts | 111° |
| 2026-05-06 01:33 | 42.91174 | -114.63803 | 36820 ft | 439 kts | 111° |
| 2026-05-06 01:33 | 42.88116 | -114.56595 | 36815 ft | 439 kts | 111° |
| 2026-05-06 01:34 | 42.85057 | -114.49400 | 36827 ft | 439 kts | 111° |
| 2026-05-06 01:34 | 42.81987 | -114.42196 | 36838 ft | 441 kts | 111° |
| 2026-05-06 01:35 | 42.78897 | -114.34969 | 36763 ft | 442 kts | 111° |
| 2026-05-06 01:35 | 42.75799 | -114.27738 | 36764 ft | 442 kts | 111° |
| 2026-05-06 01:36 | 42.72698 | -114.20516 | 36762 ft | 442 kts | 112° |
| 2026-05-06 01:36 | 42.69595 | -114.13310 | 36782 ft | 442 kts | 112° |
| 2026-05-06 01:37 | 42.66489 | -114.06108 | 36808 ft | 442 kts | 112° |
| 2026-05-06 01:37 | 42.63382 | -113.98909 | 36835 ft | 442 kts | 112° |
| 2026-05-06 01:38 | 42.60275 | -113.91714 | 36859 ft | 441 kts | 112° |
| 2026-05-06 01:38 | 42.57168 | -113.84527 | 36873 ft | 441 kts | 112° |
| 2026-05-06 01:39 | 42.53440 | -113.77792 | 36880 ft | 457 kts | 131° |
| 2026-05-06 01:39 | 42.48298 | -113.72554 | 36878 ft | 466 kts | 141° |
| 2026-05-06 01:40 | 42.43206 | -113.67258 | 36858 ft | 455 kts | 129° |
| 2026-05-06 01:40 | 42.38958 | -113.60974 | 36838 ft | 452 kts | 126° |
| 2026-05-06 01:41 | 42.34410 | -113.55014 | 36825 ft | 458 kts | 132° |
| 2026-05-06 01:41 | 42.29917 | -113.49049 | 36794 ft | 455 kts | 128° |
| 2026-05-06 01:42 | 42.25411 | -113.43029 | 36787 ft | 453 kts | 130° |
| 2026-05-06 01:42 | 42.20940 | -113.37164 | 36799 ft | 448 kts | 129° |
| 2026-05-06 01:43 | 42.18732 | -113.34195 | 36571 ft | 449 kts | 129° |
| 2026-05-06 01:43 | 42.16504 | -113.31266 | 36003 ft | 444 kts | 130° |
| 2026-05-06 01:43 | 42.14302 | -113.28402 | 35426 ft | 436 kts | 130° |
| 2026-05-06 01:43 | 42.12142 | -113.25555 | 34857 ft | 432 kts | 129° |
| 2026-05-06 01:44 | 42.10012 | -113.22727 | 34287 ft | 429 kts | 129° |
| 2026-05-06 01:44 | 42.07885 | -113.19933 | 33714 ft | 425 kts | 129° |
| 2026-05-06 01:44 | 42.05773 | -113.17173 | 33125 ft | 421 kts | 129° |
| 2026-05-06 01:44 | 42.03687 | -113.14439 | 32570 ft | 416 kts | 129° |
| 2026-05-06 01:45 | 42.01624 | -113.11728 | 32028 ft | 412 kts | 129° |
| 2026-05-06 01:45 | 41.99580 | -113.09049 | 31490 ft | 410 kts | 129° |
| 2026-05-06 01:45 | 41.97537 | -113.06379 | 30939 ft | 408 kts | 129° |
| 2026-05-06 01:45 | 41.95509 | -113.03731 | 30403 ft | 404 kts | 129° |
| 2026-05-06 01:46 | 41.93503 | -113.01113 | 29874 ft | 400 kts | 129° |
| 2026-05-06 01:46 | 41.91518 | -112.98522 | 29304 ft | 396 kts | 130° |
| 2026-05-06 01:46 | 41.89550 | -112.95958 | 28771 ft | 393 kts | 130° |
| 2026-05-06 01:46 | 41.87597 | -112.93413 | 28258 ft | 390 kts | 130° |
| 2026-05-06 01:47 | 41.85656 | -112.90889 | 27743 ft | 387 kts | 130° |
| 2026-05-06 01:47 | 41.83732 | -112.88389 | 27237 ft | 384 kts | 130° |
| 2026-05-06 01:47 | 41.81826 | -112.85915 | 26732 ft | 379 kts | 130° |
| 2026-05-06 01:47 | 41.79938 | -112.83465 | 26222 ft | 376 kts | 130° |
| 2026-05-06 01:48 | 41.78062 | -112.81031 | 25738 ft | 374 kts | 131° |
| 2026-05-06 01:48 | 41.76199 | -112.78620 | 25240 ft | 371 kts | 131° |
| 2026-05-06 01:48 | 41.74347 | -112.76223 | 24765 ft | 371 kts | 131° |
| 2026-05-06 01:48 | 41.72496 | -112.73827 | 24272 ft | 368 kts | 131° |
| 2026-05-06 01:49 | 41.70668 | -112.71461 | 23784 ft | 363 kts | 131° |
| 2026-05-06 01:49 | 41.68854 | -112.69126 | 23304 ft | 360 kts | 131° |
| 2026-05-06 01:49 | 41.67045 | -112.66821 | 22788 ft | 357 kts | 132° |
| 2026-05-06 01:49 | 41.65266 | -112.64523 | 22314 ft | 354 kts | 131° |
| 2026-05-06 01:50 | 41.63509 | -112.62231 | 21850 ft | 352 kts | 132° |
| 2026-05-06 01:50 | 41.61750 | -112.59971 | 21385 ft | 349 kts | 133° |
| 2026-05-06 01:50 | 41.60003 | -112.57739 | 20930 ft | 346 kts | 133° |
| 2026-05-06 01:50 | 41.58275 | -112.55515 | 20475 ft | 344 kts | 133° |
| 2026-05-06 01:51 | 41.56909 | -112.53755 | 20116 ft | 341 kts | 133° |
| 2026-05-06 01:51 | 41.55209 | -112.51577 | 19666 ft | 335 kts | 134° |
| 2026-05-06 01:51 | 41.53533 | -112.49433 | 19241 ft | 333 kts | 133° |
| 2026-05-06 01:51 | 41.51812 | -112.47369 | 18811 ft | 331 kts | 137° |
| 2026-05-06 01:52 | 41.50093 | -112.45370 | 18399 ft | 325 kts | 137° |
| 2026-05-06 01:52 | 41.48405 | -112.43388 | 17981 ft | 322 kts | 137° |
| 2026-05-06 01:52 | 41.46724 | -112.41421 | 17568 ft | 321 kts | 137° |
| 2026-05-06 01:52 | 41.45042 | -112.39462 | 17155 ft | 320 kts | 137° |
| 2026-05-06 01:53 | 41.43458 | -112.37408 | 16731 ft | 317 kts | 130° |
| 2026-05-06 01:53 | 41.41967 | -112.35260 | 16325 ft | 315 kts | 130° |
| 2026-05-06 01:53 | 41.40480 | -112.33132 | 15913 ft | 313 kts | 130° |
| 2026-05-06 01:53 | 41.38997 | -112.31043 | 15515 ft | 308 kts | 130° |
| 2026-05-06 01:54 | 41.37535 | -112.28980 | 15124 ft | 306 kts | 130° |
| 2026-05-06 01:54 | 41.36082 | -112.26920 | 14729 ft | 304 kts | 130° |
| 2026-05-06 01:54 | 41.34636 | -112.24873 | 14339 ft | 303 kts | 130° |
| 2026-05-06 01:54 | 41.33196 | -112.22840 | 13949 ft | 301 kts | 130° |
| 2026-05-06 01:55 | 41.31763 | -112.20816 | 13553 ft | 300 kts | 130° |
| 2026-05-06 01:55 | 41.30338 | -112.18805 | 13145 ft | 297 kts | 130° |
| 2026-05-06 01:55 | 41.28919 | -112.16803 | 12756 ft | 312 kts | 130° |
| 2026-05-06 01:55 | 41.27386 | -112.14634 | 12337 ft | 329 kts | 131° |
| 2026-05-06 01:56 | 41.25818 | -112.12434 | 11919 ft | 325 kts | 132° |
| 2026-05-06 01:56 | 41.24283 | -112.10281 | 11489 ft | 317 kts | 131° |
| 2026-05-06 01:56 | 41.22778 | -112.08161 | 11074 ft | 314 kts | 131° |
| 2026-05-06 01:56 | 41.21214 | -112.06152 | 10989 ft | 314 kts | 135° |
| 2026-05-06 01:57 | 41.19618 | -112.04168 | 10989 ft | 314 kts | 135° |
| 2026-05-06 01:57 | 41.18034 | -112.02177 | 10990 ft | 314 kts | 135° |
| 2026-05-06 01:57 | 41.16444 | -112.00189 | 10989 ft | 314 kts | 135° |
| 2026-05-06 01:57 | 41.14793 | -111.98298 | 11000 ft | 315 kts | 144° |
| 2026-05-06 01:58 | 41.12848 | -111.96958 | 10885 ft | 316 kts | 159° |
| 2026-05-06 01:58 | 41.10723 | -111.96278 | 10490 ft | 311 kts | 174° |
| 2026-05-06 01:58 | 41.08608 | -111.96210 | 10063 ft | 298 kts | 182° |
| 2026-05-06 01:58 | 41.06568 | -111.96226 | 9631 ft | 289 kts | 180° |
| 2026-05-06 01:59 | 41.04598 | -111.96214 | 9515 ft | 268 kts | 180° |
| 2026-05-06 01:59 | 41.02708 | -111.96204 | 9144 ft | 274 kts | 180° |
| 2026-05-06 01:59 | 41.00796 | -111.96184 | 8518 ft | 275 kts | 180° |
| 2026-05-06 01:59 | 40.98849 | -111.96175 | 7560 ft | 276 kts | 181° |
| 2026-05-06 02:00 | 40.96999 | -111.96222 | 7400 ft | 258 kts | 181° |
| 2026-05-06 02:00 | 40.95260 | -111.96222 | 7177 ft | 233 kts | 180° |
| 2026-05-06 02:00 | 40.93782 | -111.96198 | 6932 ft | 195 kts | 181° |
| 2026-05-06 02:00 | 40.92519 | -111.96215 | 6722 ft | 168 kts | 181° |
| 2026-05-06 02:01 | 40.91436 | -111.96203 | 6523 ft | 147 kts | 180° |
| 2026-05-06 02:01 | 40.90478 | -111.96207 | 6349 ft | 134 kts | 180° |
| 2026-05-06 02:01 | 40.89552 | -111.96208 | 6180 ft | 132 kts | 179° |
| 2026-05-06 02:01 | 40.88644 | -111.96208 | 6012 ft | 129 kts | 180° |
| 2026-05-06 02:02 | 40.87740 | -111.96209 | 5848 ft | 130 kts | 180° |
| 2026-05-06 02:02 | 40.86836 | -111.96209 | 5661 ft | 132 kts | 181° |
| 2026-05-06 02:02 | 40.85921 | -111.96209 | 5482 ft | 131 kts | 181° |
| 2026-05-06 02:02 | 40.85003 | -111.96209 | 5313 ft | 132 kts | 182° |
| 2026-05-06 02:03 | 40.84094 | -111.96209 | 5131 ft | 127 kts | 181° |
| 2026-05-06 02:03 | 40.83251 | -111.96208 | 4958 ft | 117 kts | 182° |
| 2026-05-06 02:03 | 40.82444 | -111.96208 | 4791 ft | 116 kts | 180° |
| 2026-05-06 02:03 | 40.81647 | -111.96207 | 4644 ft | 112 kts | 182° |
| 2026-05-06 02:04 | 40.80896 | -111.96213 | 4490 ft | 102 kts | 179° |
| 2026-05-06 02:04 | 40.80216 | -111.96209 | 4317 ft | 95 kts | 181° |
| 2026-05-06 02:04 | 40.79583 | -111.96209 | 4228 ft | 86 kts | 181° |
| 2026-05-06 02:04 | 40.79090 | -111.96210 | 4226 ft | 59 kts | 179° |
| 2026-05-06 02:05 | 40.78751 | -111.96208 | 4226 ft | 34 kts | 174° |
| 2026-05-06 02:05 | 40.78616 | -111.96088 | 4226 ft | 23 kts | 127° |
| 2026-05-06 02:05 | 40.78539 | -111.96004 | 4225 ft | 11 kts | 179° |
| 2026-05-06 02:05 | 40.78455 | -111.96003 | 4227 ft | 14 kts | 179° |
| 2026-05-06 02:06 | 40.78347 | -111.96003 | 4225 ft | 17 kts | 180° |
| 2026-05-06 02:06 | 40.78228 | -111.96003 | 4225 ft | 17 kts | 180° |
| 2026-05-06 02:06 | 40.78114 | -111.96003 | 4225 ft | 16 kts | 180° |
| 2026-05-06 02:06 | 40.78002 | -111.96004 | 4261 ft | 16 kts | 180° |
| 2026-05-06 02:07 | 40.77894 | -111.96000 | 4259 ft | 12 kts | 150° |
| 2026-05-06 02:07 | 40.77865 | -111.95923 | 4259 ft | 7 kts | 161° |
| 2026-05-06 02:07 | 40.77800 | -111.95918 | 4259 ft | 10 kts | 173° |
| 2026-05-06 02:07 | 40.77739 | -111.95915 | 4261 ft | 8 kts | 182° |
| 2026-05-06 02:08 | 40.77727 | -111.95915 | 4259 ft | 0 kts | 179° |
| 2026-05-06 02:09 | 40.77726 | -111.95915 | 4261 ft | 0 kts | 178° |